Terminal Aerodrome Forecast
Issued by NWS Jackson, KY

Home | Current Version | Previous Version | Text Only | Print | Product List | Glossary On
Versions: 1 2 3 4 5 6 7 8 9 10 11 12 13 14 15 16 17 18
000
FTUS43 KJKL 272300 RRA
TAFJKL
TAF
KJKL 272358Z 2800/2824 27005KT P6SM VCTS FEW003 SCT025CB BKN035
     FM280400 VRB03KT 4SM BR FEW003 BKN025
     FM280700 00000KT 2SM BR OVC003
     FM281400 28005KT P6SM OVC025
     FM282100 30005KT P6SM BKN050=

USA.gov is the U.S. government's official web portal to all federal, state and local government web resources and services.